Limby, Iowa
Current Conditions -  °F | °C
As of 7:55 PM on Monday 24 Nov 2014 (Local Time) from KFFL Reporting Station
Overcast Overcast  
Wind Chill: 17°   Ceiling: 2700
Heat Index: 28°   Visibility: NA
Dew Point: 21°   Wind: 16mph
Humidity: 74%   Direction: 280°W
Pressure: 29.86"   Gusts: NA
Location:  41.1197°N, 92.063°W
Report Text: KFFL 250155Z AUTO 28014KT OVC027 M02/M06 A2986 RMK AO2
Loading
Personal Weather Stations






























Interactive Weather Map New forecast layout! Learn more

10-Day Weather Forecast

Advertisements
Track Severe Weather on mobile